Portada
METAR-TAF:

METAR-TAF

Aeroports :

Aeroport Internacional de Viena

Viena, Àustria

latitud: 48-07N, longitud: 016-34E, altitud: 183 m

Observació

L'informe es va fer fa 18 minuts, a les 19:20 UTC
Vent 3 kt del Sud-Est
Temperatura 22°C
Humitat 50%
Pressió 1016 hPa
Visibilitat 10 km o més
sense núvols per sota de 1500 mi sense presència de cumulonimbus.

METAR: LOWW 231920Z 13003KT CAVOK 22/11 Q1016 NOSIG

Hora: 21:38 (19:38 UTC)

Pronòstic

L'informe es va fer fa 2 hores i 23 minuts, a les 17:15 UTC
Pronòstic vàlid del 23 a les 18 UTC al 24 a les 24 UTC
Vent 3 kt amb direcció variable
Visibilitat 10 km o més
sense núvols per sota de 1500 mi sense presència de cumulonimbus.
Evolucionant progressivament
l' 24 a les 07 UTC al 24 a les 09 UTC
Vent 12 kt del Sud/Sud-Est

TAF: LOWW 231715Z 2318/2424 VRB03KT CAVOK TX30/2414Z TN15/2403Z BECMG 2407/2409 15012KT

Observacions i pronòstics meteorològics de més de 4000 aeroports (METAR i TAF).

Les estacions disponibles són els punts grocs i vermells al mapa.

Posi el ratolí al punt desitjat per veure el nom de l'estació.

Feu clic per veure les observacions i els pronòstics meteorològics.

Per canviar el mapa: feu clic els botons verds amb una creu de color negre per apropar; al botó verd amb un guió per allunyar la imatge; o en les fletxes verdes per a mapes adjacents.


METAR-TAF: